sensor_id;sensor_type;location;lat;lon;timestamp;temperature;humidity
32322;DHT22;61553;48.994;8.940;2023-06-24T00:00:58;13.10;99.90
32322;DHT22;61553;48.994;8.940;2023-06-24T00:03:24;13.10;99.90
32322;DHT22;61553;48.994;8.940;2023-06-24T00:05:50;13.10;99.90
32322;DHT22;61553;48.994;8.940;2023-06-24T00:08:16;13.00;99.90
32322;DHT22;61553;48.994;8.940;2023-06-24T00:10:45;12.90;99.90
32322;DHT22;61553;48.994;8.940;2023-06-24T00:13:12;12.90;99.90
32322;DHT22;61553;48.994;8.940;2023-06-24T00:15:39;12.90;99.90
32322;DHT22;61553;48.994;8.940;2023-06-24T00:18:09;12.90;99.90
32322;DHT22;61553;48.994;8.940;2023-06-24T00:20:34;12.80;99.90
32322;DHT22;61553;48.994;8.940;2023-06-24T00:23:00;12.80;99.90
32322;DHT22;61553;48.994;8.940;2023-06-24T00:25:26;12.80;99.90
32322;DHT22;61553;48.994;8.940;2023-06-24T00:27:51;12.80;99.90
32322;DHT22;61553;48.994;8.940;2023-06-24T00:30:17;12.80;99.90
32322;DHT22;61553;48.994;8.940;2023-06-24T00:32:43;12.70;99.90
32322;DHT22;61553;48.994;8.940;2023-06-24T00:35:09;12.60;99.90
32322;DHT22;61553;48.994;8.940;2023-06-24T00:37:36;12.60;99.90
32322;DHT22;61553;48.994;8.940;2023-06-24T00:40:02;12.60;99.90
32322;DHT22;61553;48.994;8.940;2023-06-24T00:42:29;12.50;99.90
32322;DHT22;61553;48.994;8.940;2023-06-24T00:44:54;12.50;99.90
32322;DHT22;61553;48.994;8.940;2023-06-24T00:47:20;12.50;99.90
32322;DHT22;61553;48.994;8.940;2023-06-24T00:49:46;12.50;99.90
32322;DHT22;61553;48.994;8.940;2023-06-24T00:52:12;12.50;99.90
32322;DHT22;61553;48.994;8.940;2023-06-24T00:54:43;12.40;99.90
32322;DHT22;61553;48.994;8.940;2023-06-24T00:57:09;12.30;99.90
32322;DHT22;61553;48.994;8.940;2023-06-24T00:59:36;12.30;99.90
32322;DHT22;61553;48.994;8.940;2023-06-24T01:02:03;12.30;99.90
32322;DHT22;61553;48.994;8.940;2023-06-24T01:04:30;12.20;99.90
32322;DHT22;61553;48.994;8.940;2023-06-24T01:06:57;12.20;99.90
32322;DHT22;61553;48.994;8.940;2023-06-24T01:09:23;12.20;99.90
32322;DHT22;61553;48.994;8.940;2023-06-24T01:11:49;12.10;99.90
32322;DHT22;61553;48.994;8.940;2023-06-24T01:14:15;12.10;99.90
32322;DHT22;61553;48.994;8.940;2023-06-24T01:19:57;12.10;99.90
32322;DHT22;61553;48.994;8.940;2023-06-24T01:28:07;12.00;99.90
32322;DHT22;61553;48.994;8.940;2023-06-24T01:33:50;11.90;99.90
32322;DHT22;61553;48.994;8.940;2023-06-24T01:36:19;11.90;99.90
32322;DHT22;61553;48.994;8.940;2023-06-24T01:39:04;11.90;99.90
32322;DHT22;61553;48.994;8.940;2023-06-24T01:41:34;11.80;99.90
32322;DHT22;61553;48.994;8.940;2023-06-24T01:44:01;11.80;99.90
32322;DHT22;61553;48.994;8.940;2023-06-24T01:46:29;11.80;99.90
32322;DHT22;61553;48.994;8.940;2023-06-24T01:48:58;11.70;99.90
32322;DHT22;61553;48.994;8.940;2023-06-24T01:51:26;11.70;99.90
32322;DHT22;61553;48.994;8.940;2023-06-24T01:54:00;11.70;99.90
32322;DHT22;61553;48.994;8.940;2023-06-24T01:56:28;11.70;99.90
32322;DHT22;61553;48.994;8.940;2023-06-24T01:58:56;11.60;99.90
32322;DHT22;61553;48.994;8.940;2023-06-24T02:01:23;11.60;99.90
32322;DHT22;61553;48.994;8.940;2023-06-24T02:03:50;11.60;99.90
32322;DHT22;61553;48.994;8.940;2023-06-24T02:06:19;11.60;99.90
32322;DHT22;61553;48.994;8.940;2023-06-24T02:08:45;11.60;99.90
32322;DHT22;61553;48.994;8.940;2023-06-24T02:11:13;11.60;99.90
32322;DHT22;61553;48.994;8.940;2023-06-24T02:13:40;11.60;99.90
32322;DHT22;61553;48.994;8.940;2023-06-24T02:16:08;11.60;99.90
32322;DHT22;61553;48.994;8.940;2023-06-24T02:18:37;11.50;99.90
32322;DHT22;61553;48.994;8.940;2023-06-24T02:21:03;11.50;99.90
32322;DHT22;61553;48.994;8.940;2023-06-24T02:23:30;11.40;99.90
32322;DHT22;61553;48.994;8.940;2023-06-24T02:25:57;11.30;99.90
32322;DHT22;61553;48.994;8.940;2023-06-24T02:28:25;11.30;99.90
32322;DHT22;61553;48.994;8.940;2023-06-24T02:30:51;11.30;99.90
32322;DHT22;61553;48.994;8.940;2023-06-24T02:33:17;11.20;99.90
32322;DHT22;61553;48.994;8.940;2023-06-24T02:35:43;11.20;99.90
32322;DHT22;61553;48.994;8.940;2023-06-24T02:38:10;11.10;99.90
32322;DHT22;61553;48.994;8.940;2023-06-24T02:40:36;11.10;99.90
32322;DHT22;61553;48.994;8.940;2023-06-24T02:43:02;11.10;99.90
32322;DHT22;61553;48.994;8.940;2023-06-24T02:45:28;11.10;99.90
32322;DHT22;61553;48.994;8.940;2023-06-24T02:47:56;11.10;99.90
32322;DHT22;61553;48.994;8.940;2023-06-24T02:50:23;11.10;99.90
32322;DHT22;61553;48.994;8.940;2023-06-24T02:52:50;11.00;99.90
32322;DHT22;61553;48.994;8.940;2023-06-24T02:55:17;11.00;99.90
32322;DHT22;61553;48.994;8.940;2023-06-24T02:57:43;11.00;99.90
32322;DHT22;61553;48.994;8.940;2023-06-24T03:00:10;11.00;99.90
32322;DHT22;61553;48.994;8.940;2023-06-24T03:02:42;10.90;99.90
32322;DHT22;61553;48.994;8.940;2023-06-24T03:05:09;10.90;99.90
32322;DHT22;61553;48.994;8.940;2023-06-24T03:07:37;10.90;99.90
32322;DHT22;61553;48.994;8.940;2023-06-24T03:10:04;10.90;99.90
32322;DHT22;61553;48.994;8.940;2023-06-24T03:12:33;10.90;99.90
32322;DHT22;61553;48.994;8.940;2023-06-24T03:14:59;10.80;99.90
32322;DHT22;61553;48.994;8.940;2023-06-24T03:17:26;10.80;99.90
32322;DHT22;61553;48.994;8.940;2023-06-24T03:19:52;10.80;99.90
32322;DHT22;61553;48.994;8.940;2023-06-24T03:22:17;10.80;99.90
32322;DHT22;61553;48.994;8.940;2023-06-24T03:24:43;10.80;99.90
32322;DHT22;61553;48.994;8.940;2023-06-24T03:27:09;10.80;99.90
32322;DHT22;61553;48.994;8.940;2023-06-24T03:29:35;10.90;99.90
32322;DHT22;61553;48.994;8.940;2023-06-24T03:32:00;10.90;99.90
32322;DHT22;61553;48.994;8.940;2023-06-24T03:34:26;10.90;99.90
32322;DHT22;61553;48.994;8.940;2023-06-24T03:36:53;11.00;99.90
32322;DHT22;61553;48.994;8.940;2023-06-24T03:39:20;11.00;99.90
32322;DHT22;61553;48.994;8.940;2023-06-24T03:41:46;11.10;99.90
32322;DHT22;61553;48.994;8.940;2023-06-24T03:44:12;11.10;99.90
32322;DHT22;61553;48.994;8.940;2023-06-24T03:46:38;11.20;99.90
32322;DHT22;61553;48.994;8.940;2023-06-24T03:49:04;11.20;99.90
32322;DHT22;61553;48.994;8.940;2023-06-24T03:51:29;11.30;99.90
32322;DHT22;61553;48.994;8.940;2023-06-24T03:53:55;11.40;99.90
32322;DHT22;61553;48.994;8.940;2023-06-24T03:56:20;11.50;99.90
32322;DHT22;61553;48.994;8.940;2023-06-24T03:58:46;11.50;99.90
32322;DHT22;61553;48.994;8.940;2023-06-24T04:01:12;11.60;99.90
32322;DHT22;61553;48.994;8.940;2023-06-24T04:03:37;11.80;99.90
32322;DHT22;61553;48.994;8.940;2023-06-24T04:06:03;11.90;99.90
32322;DHT22;61553;48.994;8.940;2023-06-24T04:08:29;12.00;99.90
32322;DHT22;61553;48.994;8.940;2023-06-24T04:10:55;12.10;99.90
32322;DHT22;61553;48.994;8.940;2023-06-24T04:13:21;12.20;99.90
32322;DHT22;61553;48.994;8.940;2023-06-24T04:15:46;12.40;99.90
32322;DHT22;61553;48.994;8.940;2023-06-24T04:18:12;12.50;99.90
32322;DHT22;61553;48.994;8.940;2023-06-24T04:20:38;12.60;99.90
32322;DHT22;61553;48.994;8.940;2023-06-24T04:23:04;12.70;99.90
32322;DHT22;61553;48.994;8.940;2023-06-24T04:25:34;12.90;99.90
32322;DHT22;61553;48.994;8.940;2023-06-24T04:28:01;13.00;99.90
32322;DHT22;61553;48.994;8.940;2023-06-24T04:30:26;13.10;99.90
32322;DHT22;61553;48.994;8.940;2023-06-24T04:32:52;13.20;99.90
32322;DHT22;61553;48.994;8.940;2023-06-24T04:35:18;13.30;99.90
32322;DHT22;61553;48.994;8.940;2023-06-24T04:37:43;13.40;99.90
32322;DHT22;61553;48.994;8.940;2023-06-24T04:40:09;13.60;99.90
32322;DHT22;61553;48.994;8.940;2023-06-24T04:42:35;13.60;99.90
32322;DHT22;61553;48.994;8.940;2023-06-24T04:45:00;13.80;99.90
32322;DHT22;61553;48.994;8.940;2023-06-24T04:47:30;14.00;99.90
32322;DHT22;61553;48.994;8.940;2023-06-24T04:49:56;14.10;99.90
32322;DHT22;61553;48.994;8.940;2023-06-24T04:52:23;14.40;99.90
32322;DHT22;61553;48.994;8.940;2023-06-24T04:54:49;14.60;99.90
32322;DHT22;61553;48.994;8.940;2023-06-24T04:57:27;14.90;99.90
32322;DHT22;61553;48.994;8.940;2023-06-24T04:59:52;15.80;99.90
32322;DHT22;61553;48.994;8.940;2023-06-24T05:02:18;17.40;99.90
32322;DHT22;61553;48.994;8.940;2023-06-24T05:04:44;18.70;99.90
32322;DHT22;61553;48.994;8.940;2023-06-24T05:07:09;20.20;99.90
32322;DHT22;61553;48.994;8.940;2023-06-24T05:09:35;21.50;99.90
32322;DHT22;61553;48.994;8.940;2023-06-24T05:12:06;22.70;97.70
32322;DHT22;61553;48.994;8.940;2023-06-24T05:14:34;23.40;95.00
32322;DHT22;61553;48.994;8.940;2023-06-24T05:17:00;24.40;91.00
32322;DHT22;61553;48.994;8.940;2023-06-24T05:19:26;25.70;83.90
32322;DHT22;61553;48.994;8.940;2023-06-24T05:21:52;26.90;79.00
32322;DHT22;61553;48.994;8.940;2023-06-24T05:24:17;28.00;71.80
32322;DHT22;61553;48.994;8.940;2023-06-24T05:26:45;29.50;66.20
32322;DHT22;61553;48.994;8.940;2023-06-24T05:29:11;30.00;62.40
32322;DHT22;61553;48.994;8.940;2023-06-24T05:31:37;31.20;58.30
32322;DHT22;61553;48.994;8.940;2023-06-24T05:34:03;31.90;55.70
32322;DHT22;61553;48.994;8.940;2023-06-24T05:36:28;32.30;53.20
32322;DHT22;61553;48.994;8.940;2023-06-24T05:38:54;32.70;51.70
32322;DHT22;61553;48.994;8.940;2023-06-24T05:41:20;33.60;50.30
32322;DHT22;61553;48.994;8.940;2023-06-24T05:43:45;34.00;48.40
32322;DHT22;61553;48.994;8.940;2023-06-24T05:46:11;33.80;47.90
32322;DHT22;61553;48.994;8.940;2023-06-24T05:48:37;34.90;47.20
32322;DHT22;61553;48.994;8.940;2023-06-24T05:51:03;36.00;45.10
32322;DHT22;61553;48.994;8.940;2023-06-24T05:53:28;35.80;44.50
32322;DHT22;61553;48.994;8.940;2023-06-24T05:55:54;35.60;44.20
32322;DHT22;61553;48.994;8.940;2023-06-24T05:58:20;35.90;43.80
32322;DHT22;61553;48.994;8.940;2023-06-24T06:00:45;36.10;43.80
32322;DHT22;61553;48.994;8.940;2023-06-24T06:03:11;37.70;42.60
32322;DHT22;61553;48.994;8.940;2023-06-24T06:05:36;37.80;41.20
32322;DHT22;61553;48.994;8.940;2023-06-24T06:08:02;38.70;40.60
32322;DHT22;61553;48.994;8.940;2023-06-24T06:10:28;38.30;40.30
32322;DHT22;61553;48.994;8.940;2023-06-24T06:12:54;38.80;39.80
32322;DHT22;61553;48.994;8.940;2023-06-24T06:15:20;38.60;39.50
32322;DHT22;61553;48.994;8.940;2023-06-24T06:17:46;38.50;39.90
32322;DHT22;61553;48.994;8.940;2023-06-24T06:20:11;38.00;40.40
32322;DHT22;61553;48.994;8.940;2023-06-24T06:22:37;38.60;40.00
32322;DHT22;61553;48.994;8.940;2023-06-24T06:25:07;39.80;39.00
32322;DHT22;61553;48.994;8.940;2023-06-24T06:27:33;38.30;39.70
32322;DHT22;61553;48.994;8.940;2023-06-24T06:29:59;38.70;39.80
32322;DHT22;61553;48.994;8.940;2023-06-24T06:32:24;39.50;39.50
32322;DHT22;61553;48.994;8.940;2023-06-24T06:34:50;39.60;39.50
32322;DHT22;61553;48.994;8.940;2023-06-24T06:37:16;40.70;39.00
32322;DHT22;61553;48.994;8.940;2023-06-24T06:39:41;40.30;38.60
32322;DHT22;61553;48.994;8.940;2023-06-24T06:42:07;39.20;39.60
32322;DHT22;61553;48.994;8.940;2023-06-24T06:44:33;39.60;39.60
32322;DHT22;61553;48.994;8.940;2023-06-24T06:46:58;39.70;39.40
32322;DHT22;61553;48.994;8.940;2023-06-24T06:49:24;39.80;39.30
32322;DHT22;61553;48.994;8.940;2023-06-24T06:51:51;39.20;39.60
32322;DHT22;61553;48.994;8.940;2023-06-24T06:54:17;38.20;40.30
32322;DHT22;61553;48.994;8.940;2023-06-24T06:56:42;37.20;41.40
32322;DHT22;61553;48.994;8.940;2023-06-24T06:59:08;38.50;40.10
32322;DHT22;61553;48.994;8.940;2023-06-24T07:01:34;37.70;40.50
32322;DHT22;61553;48.994;8.940;2023-06-24T07:03:59;38.20;40.50
32322;DHT22;61553;48.994;8.940;2023-06-24T07:06:25;38.90;40.10
32322;DHT22;61553;48.994;8.940;2023-06-24T07:08:50;39.30;39.40
32322;DHT22;61553;48.994;8.940;2023-06-24T07:11:16;38.70;39.90
32322;DHT22;61553;48.994;8.940;2023-06-24T07:13:42;39.30;39.40
32322;DHT22;61553;48.994;8.940;2023-06-24T07:16:07;40.00;38.70
32322;DHT22;61553;48.994;8.940;2023-06-24T07:18:33;39.00;39.50
32322;DHT22;61553;48.994;8.940;2023-06-24T07:21:00;38.60;40.10
32322;DHT22;61553;48.994;8.940;2023-06-24T07:23:27;39.10;39.70
32322;DHT22;61553;48.994;8.940;2023-06-24T07:25:52;40.40;38.70
32322;DHT22;61553;48.994;8.940;2023-06-24T07:28:18;40.70;38.50
32322;DHT22;61553;48.994;8.940;2023-06-24T07:30:43;41.70;37.30
32322;DHT22;61553;48.994;8.940;2023-06-24T07:33:09;41.90;37.20
32322;DHT22;61553;48.994;8.940;2023-06-24T07:35:35;40.50;38.00
32322;DHT22;61553;48.994;8.940;2023-06-24T07:38:00;40.20;38.50
32322;DHT22;61553;48.994;8.940;2023-06-24T07:40:26;41.30;37.50
32322;DHT22;61553;48.994;8.940;2023-06-24T07:42:53;42.30;37.10
32322;DHT22;61553;48.994;8.940;2023-06-24T07:45:19;42.10;37.00
32322;DHT22;61553;48.994;8.940;2023-06-24T07:47:44;41.20;37.40
32322;DHT22;61553;48.994;8.940;2023-06-24T07:50:10;39.80;38.30
32322;DHT22;61553;48.994;8.940;2023-06-24T07:52:37;40.20;38.20
32322;DHT22;61553;48.994;8.940;2023-06-24T07:55:03;40.50;37.40
32322;DHT22;61553;48.994;8.940;2023-06-24T07:57:29;41.60;36.20
32322;DHT22;61553;48.994;8.940;2023-06-24T07:59:55;42.10;36.10
32322;DHT22;61553;48.994;8.940;2023-06-24T08:02:20;43.40;35.70
32322;DHT22;61553;48.994;8.940;2023-06-24T08:04:46;43.10;35.00
32322;DHT22;61553;48.994;8.940;2023-06-24T08:07:12;44.00;34.70
32322;DHT22;61553;48.994;8.940;2023-06-24T08:09:38;42.20;34.90
32322;DHT22;61553;48.994;8.940;2023-06-24T08:12:04;42.30;35.40
32322;DHT22;61553;48.994;8.940;2023-06-24T08:14:29;41.10;36.50
32322;DHT22;61553;48.994;8.940;2023-06-24T08:16:55;41.50;36.00
32322;DHT22;61553;48.994;8.940;2023-06-24T08:19:21;41.90;35.60
32322;DHT22;61553;48.994;8.940;2023-06-24T08:21:46;41.70;34.70
32322;DHT22;61553;48.994;8.940;2023-06-24T08:24:12;42.40;34.00
32322;DHT22;61553;48.994;8.940;2023-06-24T08:26:38;41.50;35.00
32322;DHT22;61553;48.994;8.940;2023-06-24T08:29:03;41.50;35.50
32322;DHT22;61553;48.994;8.940;2023-06-24T08:31:29;42.60;34.20
32322;DHT22;61553;48.994;8.940;2023-06-24T08:33:55;42.30;34.40
32322;DHT22;61553;48.994;8.940;2023-06-24T08:36:28;42.40;34.30
32322;DHT22;61553;48.994;8.940;2023-06-24T08:38:54;43.50;33.60
32322;DHT22;61553;48.994;8.940;2023-06-24T08:41:20;44.10;33.20
32322;DHT22;61553;48.994;8.940;2023-06-24T08:43:45;45.30;32.20
32322;DHT22;61553;48.994;8.940;2023-06-24T08:46:13;44.10;31.20
32322;DHT22;61553;48.994;8.940;2023-06-24T08:48:42;44.90;31.10
32322;DHT22;61553;48.994;8.940;2023-06-24T08:51:10;43.80;31.20
32322;DHT22;61553;48.994;8.940;2023-06-24T08:53:37;43.70;31.50
32322;DHT22;61553;48.994;8.940;2023-06-24T08:56:04;45.70;30.50
32322;DHT22;61553;48.994;8.940;2023-06-24T08:58:30;47.20;29.90
32322;DHT22;61553;48.994;8.940;2023-06-24T09:00:56;47.50;29.70
32322;DHT22;61553;48.994;8.940;2023-06-24T09:03:22;48.40;29.80
32322;DHT22;61553;48.994;8.940;2023-06-24T09:05:48;49.10;29.20
32322;DHT22;61553;48.994;8.940;2023-06-24T09:08:14;49.50;28.70
32322;DHT22;61553;48.994;8.940;2023-06-24T09:10:41;48.70;28.70
32322;DHT22;61553;48.994;8.940;2023-06-24T09:13:07;49.20;28.50
32322;DHT22;61553;48.994;8.940;2023-06-24T09:15:34;47.70;28.80
32322;DHT22;61553;48.994;8.940;2023-06-24T09:18:00;47.50;29.00
32322;DHT22;61553;48.994;8.940;2023-06-24T09:20:27;46.10;29.60
32322;DHT22;61553;48.994;8.940;2023-06-24T09:22:58;47.50;29.30
32322;DHT22;61553;48.994;8.940;2023-06-24T09:25:24;45.80;29.20
32322;DHT22;61553;48.994;8.940;2023-06-24T09:27:50;45.50;29.50
32322;DHT22;61553;48.994;8.940;2023-06-24T09:32:51;45.00;29.90
32322;DHT22;61553;48.994;8.940;2023-06-24T09:35:22;46.30;29.40
32322;DHT22;61553;48.994;8.940;2023-06-24T09:37:52;45.30;29.50
32322;DHT22;61553;48.994;8.940;2023-06-24T09:40:18;46.90;29.20
32322;DHT22;61553;48.994;8.940;2023-06-24T09:42:54;46.10;29.40
32322;DHT22;61553;48.994;8.940;2023-06-24T09:45:25;45.70;29.30
32322;DHT22;61553;48.994;8.940;2023-06-24T09:47:50;46.10;29.40
32322;DHT22;61553;48.994;8.940;2023-06-24T09:50:16;46.70;29.40
32322;DHT22;61553;48.994;8.940;2023-06-24T09:52:43;45.50;29.30
32322;DHT22;61553;48.994;8.940;2023-06-24T09:55:11;45.80;29.20
32322;DHT22;61553;48.994;8.940;2023-06-24T09:57:38;46.60;29.40
32322;DHT22;61553;48.994;8.940;2023-06-24T10:00:05;46.20;29.40
32322;DHT22;61553;48.994;8.940;2023-06-24T10:02:32;45.60;29.50
32322;DHT22;61553;48.994;8.940;2023-06-24T10:05:00;45.40;29.40
32322;DHT22;61553;48.994;8.940;2023-06-24T10:07:27;46.10;29.30
32322;DHT22;61553;48.994;8.940;2023-06-24T10:09:53;44.80;28.80
32322;DHT22;61553;48.994;8.940;2023-06-24T10:12:20;43.10;29.40
32322;DHT22;61553;48.994;8.940;2023-06-24T10:14:46;40.80;30.80
32322;DHT22;61553;48.994;8.940;2023-06-24T10:17:12;39.50;31.70
32322;DHT22;61553;48.994;8.940;2023-06-24T10:19:39;37.80;32.90
32322;DHT22;61553;48.994;8.940;2023-06-24T10:22:09;36.10;34.70
32322;DHT22;61553;48.994;8.940;2023-06-24T10:24:41;34.80;35.70
32322;DHT22;61553;48.994;8.940;2023-06-24T10:27:18;33.30;37.20
32322;DHT22;61553;48.994;8.940;2023-06-24T10:29:48;33.10;37.90
32322;DHT22;61553;48.994;8.940;2023-06-24T10:32:14;32.60;38.20
32322;DHT22;61553;48.994;8.940;2023-06-24T10:34:42;32.20;37.90
32322;DHT22;61553;48.994;8.940;2023-06-24T10:39:51;31.60;37.80
32322;DHT22;61553;48.994;8.940;2023-06-24T10:42:27;31.60;38.00
32322;DHT22;61553;48.994;8.940;2023-06-24T10:44:57;31.80;38.60
32322;DHT22;61553;48.994;8.940;2023-06-24T10:47:24;31.60;39.30
32322;DHT22;61553;48.994;8.940;2023-06-24T10:49:50;31.20;39.30
32322;DHT22;61553;48.994;8.940;2023-06-24T10:52:18;31.20;39.60
32322;DHT22;61553;48.994;8.940;2023-06-24T10:54:45;30.70;40.60
32322;DHT22;61553;48.994;8.940;2023-06-24T10:57:12;30.20;41.70
32322;DHT22;61553;48.994;8.940;2023-06-24T10:59:41;30.00;42.00
32322;DHT22;61553;48.994;8.940;2023-06-24T11:02:08;29.80;41.20
32322;DHT22;61553;48.994;8.940;2023-06-24T11:04:49;29.70;41.00
32322;DHT22;61553;48.994;8.940;2023-06-24T11:07:17;30.00;41.30
32322;DHT22;61553;48.994;8.940;2023-06-24T11:09:55;29.80;40.00
32322;DHT22;61553;48.994;8.940;2023-06-24T11:12:26;29.80;39.30
32322;DHT22;61553;48.994;8.940;2023-06-24T11:14:58;29.80;39.20
32322;DHT22;61553;48.994;8.940;2023-06-24T11:17:24;29.70;39.80
32322;DHT22;61553;48.994;8.940;2023-06-24T11:19:52;29.60;39.70
32322;DHT22;61553;48.994;8.940;2023-06-24T11:22:18;29.80;39.60
32322;DHT22;61553;48.994;8.940;2023-06-24T11:24:44;30.00;38.40
32322;DHT22;61553;48.994;8.940;2023-06-24T11:27:10;30.10;38.50
32322;DHT22;61553;48.994;8.940;2023-06-24T11:29:35;30.10;39.60
32322;DHT22;61553;48.994;8.940;2023-06-24T11:32:02;30.30;40.40
32322;DHT22;61553;48.994;8.940;2023-06-24T11:34:28;30.50;39.40
32322;DHT22;61553;48.994;8.940;2023-06-24T11:36:54;30.60;40.00
32322;DHT22;61553;48.994;8.940;2023-06-24T11:39:21;30.50;39.50
32322;DHT22;61553;48.994;8.940;2023-06-24T11:41:47;30.30;39.30
32322;DHT22;61553;48.994;8.940;2023-06-24T11:44:13;30.20;40.00
32322;DHT22;61553;48.994;8.940;2023-06-24T11:46:40;30.10;39.50
32322;DHT22;61553;48.994;8.940;2023-06-24T11:49:07;30.40;39.50
32322;DHT22;61553;48.994;8.940;2023-06-24T11:51:36;30.20;39.10
32322;DHT22;61553;48.994;8.940;2023-06-24T11:54:03;30.20;38.90
32322;DHT22;61553;48.994;8.940;2023-06-24T11:56:39;30.00;38.70
32322;DHT22;61553;48.994;8.940;2023-06-24T11:59:25;30.00;39.00
32322;DHT22;61553;48.994;8.940;2023-06-24T12:01:56;30.00;39.70
32322;DHT22;61553;48.994;8.940;2023-06-24T12:04:27;29.90;38.90
32322;DHT22;61553;48.994;8.940;2023-06-24T12:06:53;29.90;38.90
32322;DHT22;61553;48.994;8.940;2023-06-24T12:09:18;29.90;39.90
32322;DHT22;61553;48.994;8.940;2023-06-24T12:11:44;30.00;39.60
32322;DHT22;61553;48.994;8.940;2023-06-24T12:14:10;29.90;40.10
32322;DHT22;61553;48.994;8.940;2023-06-24T12:16:36;29.90;38.90
32322;DHT22;61553;48.994;8.940;2023-06-24T12:19:02;29.80;39.50
32322;DHT22;61553;48.994;8.940;2023-06-24T12:21:28;29.90;39.50
32322;DHT22;61553;48.994;8.940;2023-06-24T12:23:53;29.60;39.50
32322;DHT22;61553;48.994;8.940;2023-06-24T12:26:19;29.80;39.40
32322;DHT22;61553;48.994;8.940;2023-06-24T12:28:44;29.90;39.00
32322;DHT22;61553;48.994;8.940;2023-06-24T12:31:11;29.90;39.00
32322;DHT22;61553;48.994;8.940;2023-06-24T12:33:36;29.60;38.60
32322;DHT22;61553;48.994;8.940;2023-06-24T12:36:02;29.70;39.30
32322;DHT22;61553;48.994;8.940;2023-06-24T12:38:28;29.80;38.60
32322;DHT22;61553;48.994;8.940;2023-06-24T12:40:53;30.00;38.70
32322;DHT22;61553;48.994;8.940;2023-06-24T12:43:19;30.00;39.10
32322;DHT22;61553;48.994;8.940;2023-06-24T12:45:45;30.00;39.20
32322;DHT22;61553;48.994;8.940;2023-06-24T12:48:12;29.80;39.00
32322;DHT22;61553;48.994;8.940;2023-06-24T12:50:38;29.80;39.20
32322;DHT22;61553;48.994;8.940;2023-06-24T12:53:04;29.60;39.20
32322;DHT22;61553;48.994;8.940;2023-06-24T12:55:29;29.50;39.60
32322;DHT22;61553;48.994;8.940;2023-06-24T12:57:56;29.40;39.60
32322;DHT22;61553;48.994;8.940;2023-06-24T13:00:22;29.40;39.40
32322;DHT22;61553;48.994;8.940;2023-06-24T13:02:49;29.50;40.40
32322;DHT22;61553;48.994;8.940;2023-06-24T13:05:15;29.40;40.20
32322;DHT22;61553;48.994;8.940;2023-06-24T13:07:41;29.30;39.80
32322;DHT22;61553;48.994;8.940;2023-06-24T13:10:08;29.30;40.30
32322;DHT22;61553;48.994;8.940;2023-06-24T13:12:34;29.20;39.60
32322;DHT22;61553;48.994;8.940;2023-06-24T13:15:00;29.20;40.10
32322;DHT22;61553;48.994;8.940;2023-06-24T13:17:26;29.20;38.80
32322;DHT22;61553;48.994;8.940;2023-06-24T13:19:52;29.30;38.90
32322;DHT22;61553;48.994;8.940;2023-06-24T13:22:18;29.50;39.30
32322;DHT22;61553;48.994;8.940;2023-06-24T13:24:44;29.70;39.10
32322;DHT22;61553;48.994;8.940;2023-06-24T13:27:10;29.80;37.70
32322;DHT22;61553;48.994;8.940;2023-06-24T13:29:36;29.80;38.20
32322;DHT22;61553;48.994;8.940;2023-06-24T13:32:02;29.70;37.80
32322;DHT22;61553;48.994;8.940;2023-06-24T13:34:28;29.70;38.70
32322;DHT22;61553;48.994;8.940;2023-06-24T13:36:54;29.90;39.00
32322;DHT22;61553;48.994;8.940;2023-06-24T13:39:20;30.00;39.30
32322;DHT22;61553;48.994;8.940;2023-06-24T13:41:49;30.00;38.20
32322;DHT22;61553;48.994;8.940;2023-06-24T13:44:15;29.80;38.60
32322;DHT22;61553;48.994;8.940;2023-06-24T13:46:41;29.90;38.60
32322;DHT22;61553;48.994;8.940;2023-06-24T13:49:07;29.90;38.90
32322;DHT22;61553;48.994;8.940;2023-06-24T13:51:33;30.00;38.80
32322;DHT22;61553;48.994;8.940;2023-06-24T13:53:59;29.90;38.30
32322;DHT22;61553;48.994;8.940;2023-06-24T13:56:25;29.90;38.60
32322;DHT22;61553;48.994;8.940;2023-06-24T13:58:51;30.00;38.30
32322;DHT22;61553;48.994;8.940;2023-06-24T14:01:17;29.80;38.20
32322;DHT22;61553;48.994;8.940;2023-06-24T14:03:43;29.80;38.20
32322;DHT22;61553;48.994;8.940;2023-06-24T14:06:09;29.70;37.80
32322;DHT22;61553;48.994;8.940;2023-06-24T14:08:35;29.50;37.20
32322;DHT22;61553;48.994;8.940;2023-06-24T14:11:02;29.70;37.50
32322;DHT22;61553;48.994;8.940;2023-06-24T14:13:28;29.60;37.40
32322;DHT22;61553;48.994;8.940;2023-06-24T14:15:55;29.70;37.30
32322;DHT22;61553;48.994;8.940;2023-06-24T14:18:21;29.80;37.20
32322;DHT22;61553;48.994;8.940;2023-06-24T14:20:46;29.60;37.00
32322;DHT22;61553;48.994;8.940;2023-06-24T14:23:12;29.60;37.90
32322;DHT22;61553;48.994;8.940;2023-06-24T14:25:38;29.60;38.10
32322;DHT22;61553;48.994;8.940;2023-06-24T14:28:04;29.70;36.90
32322;DHT22;61553;48.994;8.940;2023-06-24T14:30:30;29.70;36.50
32322;DHT22;61553;48.994;8.940;2023-06-24T14:32:56;29.70;36.90
32322;DHT22;61553;48.994;8.940;2023-06-24T14:35:22;29.70;36.70
32322;DHT22;61553;48.994;8.940;2023-06-24T14:37:48;29.60;36.80
32322;DHT22;61553;48.994;8.940;2023-06-24T14:40:13;29.60;35.90
32322;DHT22;61553;48.994;8.940;2023-06-24T14:42:39;29.60;37.60
32322;DHT22;61553;48.994;8.940;2023-06-24T14:45:05;29.60;36.20
32322;DHT22;61553;48.994;8.940;2023-06-24T14:47:30;29.40;36.30
32322;DHT22;61553;48.994;8.940;2023-06-24T14:49:57;29.50;36.10
32322;DHT22;61553;48.994;8.940;2023-06-24T14:52:23;29.60;35.80
32322;DHT22;61553;48.994;8.940;2023-06-24T14:54:48;29.70;36.20
32322;DHT22;61553;48.994;8.940;2023-06-24T14:57:14;29.80;35.60
32322;DHT22;61553;48.994;8.940;2023-06-24T14:59:42;29.70;34.80
32322;DHT22;61553;48.994;8.940;2023-06-24T15:02:08;29.70;35.60
32322;DHT22;61553;48.994;8.940;2023-06-24T15:04:35;29.60;34.40
32322;DHT22;61553;48.994;8.940;2023-06-24T15:07:01;29.70;35.10
32322;DHT22;61553;48.994;8.940;2023-06-24T15:09:27;29.70;35.60
32322;DHT22;61553;48.994;8.940;2023-06-24T15:11:52;29.50;35.20
32322;DHT22;61553;48.994;8.940;2023-06-24T15:14:18;29.50;34.90
32322;DHT22;61553;48.994;8.940;2023-06-24T15:16:44;29.40;35.00
32322;DHT22;61553;48.994;8.940;2023-06-24T15:19:09;29.50;35.50
32322;DHT22;61553;48.994;8.940;2023-06-24T15:21:35;29.50;35.20
32322;DHT22;61553;48.994;8.940;2023-06-24T15:24:01;29.60;35.20
32322;DHT22;61553;48.994;8.940;2023-06-24T15:26:26;29.50;35.70
32322;DHT22;61553;48.994;8.940;2023-06-24T15:28:52;29.40;35.80
32322;DHT22;61553;48.994;8.940;2023-06-24T15:31:19;29.30;35.30
32322;DHT22;61553;48.994;8.940;2023-06-24T15:33:45;29.40;35.40
32322;DHT22;61553;48.994;8.940;2023-06-24T15:36:10;29.30;35.80
32322;DHT22;61553;48.994;8.940;2023-06-24T15:38:36;29.40;35.00
32322;DHT22;61553;48.994;8.940;2023-06-24T15:41:02;29.50;34.40
32322;DHT22;61553;48.994;8.940;2023-06-24T15:43:27;29.50;35.30